Time;durP1;ratioP1;P1;durP2;ratioP2;P2;SDS_P1;SDS_P2;PMS_P1;PMS_P2;Temp;Humidity;BMP_temperature;BMP_pressure;BME280_temperature;BME280_humidity;BME280_pressure;Samples;Min_cycle;Max_cycle;Signal;HPM_P1;HPM_P2
2021/03/27 00:00:06;;;;;;;18.80;8.60;;;;;;;12.53;58.70;101292.53;5025143;28;20058;-76
2021/03/27 00:03:38;;;;;;;14.30;9.25;;;;;;;12.62;58.53;101298.03;5026791;28;20068;-77
2021/03/27 00:06:45;;;;;;;10.75;8.45;;;;;;;12.68;58.51;101294.00;5022680;28;20053;-75
2021/03/27 00:10:03;;;;;;;11.77;8.20;;;;;;;12.70;58.34;101298.28;5024588;28;20041;-75
2021/03/27 00:13:11;;;;;;;12.50;7.60;;;;;;;12.70;58.70;101298.28;5023864;28;20049;-75
2021/03/27 00:16:28;;;;;;;12.38;8.57;;;;;;;12.71;59.11;101291.06;5024875;28;20049;-76
2021/03/27 00:19:52;;;;;;;10.80;8.48;;;;;;;12.67;59.19;101297.66;5025002;28;20056;-76
2021/03/27 00:23:10;;;;;;;12.23;8.68;;;;;;;12.58;60.40;101298.41;5025636;28;20049;-74
2021/03/27 00:26:35;;;;;;;10.27;8.90;;;;;;;12.52;60.35;101296.22;5024501;28;20057;-77
2021/03/27 00:29:47;;;;;;;16.38;9.80;;;;;;;12.42;61.17;101298.78;5026608;28;20038;-78
2021/03/27 00:32:54;;;;;;;14.95;9.30;;;;;;;12.37;61.53;101303.69;5024331;28;20060;-83
2021/03/27 00:36:03;;;;;;;10.90;9.18;;;;;;;12.18;61.97;101304.31;5025743;28;20048;-78
2021/03/27 00:39:25;;;;;;;13.85;8.80;;;;;;;12.12;62.13;101307.47;5023377;28;20515;-77
2021/03/27 00:42:32;;;;;;;12.70;8.48;;;;;;;12.08;62.74;101306.00;5023692;28;20064;-79
2021/03/27 00:45:43;;;;;;;14.32;8.90;;;;;;;12.04;63.02;101306.38;5024863;28;20049;-74
2021/03/27 00:49:05;;;;;;;13.68;8.85;;;;;;;12.06;62.95;101301.72;5022837;28;20156;-74
2021/03/27 00:52:13;;;;;;;12.75;8.45;;;;;;;12.07;62.89;101298.91;5023379;28;20105;-74
2021/03/27 00:55:29;;;;;;;11.80;8.52;;;;;;;12.04;62.93;101299.16;5035566;28;20053;-79
2021/03/27 00:58:43;;;;;;;11.98;9.13;;;;;;;12.02;63.05;101294.88;5024843;28;20041;-74
2021/03/27 01:01:53;;;;;;;11.20;8.45;;;;;;;11.93;63.60;101299.13;5023346;28;20508;-75
2021/03/27 01:05:26;;;;;;;15.48;9.55;;;;;;;11.87;63.21;101304.16;5027416;28;20488;-74
2021/03/27 01:09:02;;;;;;;15.98;8.90;;;;;;;11.83;63.09;101302.66;5020823;28;20397;-74
2021/03/27 01:12:17;;;;;;;12.45;8.85;;;;;;;11.90;63.00;101296.69;5023666;28;20393;-73
2021/03/27 01:15:28;;;;;;;13.57;8.13;;;;;;;11.98;62.73;101293.38;5020972;28;20049;-76
2021/03/27 01:18:41;;;;;;;12.18;8.57;;;;;;;12.02;62.24;101298.44;5023432;28;20044;-74
2021/03/27 01:21:47;;;;;;;13.15;8.85;;;;;;;11.99;62.99;101301.34;5023580;28;20047;-75
2021/03/27 01:25:00;;;;;;;14.98;9.93;;;;;;;11.91;63.17;101295.72;5023459;28;20393;-76
2021/03/27 01:28:06;;;;;;;12.50;9.60;;;;;;;11.95;63.28;101296.34;5020599;28;20405;-76
2021/03/27 01:31:45;;;;;;;13.25;8.75;;;;;;;11.89;63.33;101288.75;5023090;28;20045;-75
2021/03/27 01:35:01;;;;;;;12.77;8.63;;;;;;;11.90;63.50;101283.22;5022595;28;20409;-75
2021/03/27 01:38:24;;;;;;;11.70;7.90;;;;;;;11.94;63.11;101282.03;5021582;28;20404;-74
2021/03/27 01:41:46;;;;;;;13.00;8.85;;;;;;;11.94;63.39;101281.16;5022127;28;20045;-75
2021/03/27 01:45:07;;;;;;;11.02;8.70;;;;;;;11.99;63.04;101271.75;5023101;28;20061;-74
2021/03/27 01:48:23;;;;;;;13.35;8.70;;;;;;;11.95;63.31;101277.50;5022736;28;20064;-74
2021/03/27 01:51:52;;;;;;;11.63;8.50;;;;;;;11.89;63.05;101278.84;5021948;28;20045;-74
2021/03/27 01:55:14;;;;;;;12.38;8.82;;;;;;;11.86;62.99;101267.44;5023813;28;20511;-74
2021/03/27 01:58:45;;;;;;;12.02;8.25;;;;;;;11.80;62.90;101268.78;5021902;28;20049;-75
2021/03/27 02:02:30;;;;;;;13.10;8.43;;;;;;;11.75;62.74;101269.16;5022192;28;20044;-75
2021/03/27 02:05:40;;;;;;;10.63;7.60;;;;;;;11.85;62.74;101274.66;4982895;28;20062;-75
2021/03/27 02:09:05;;;;;;;12.57;8.32;;;;;;;11.88;62.60;101273.56;4966531;28;20053;-77
2021/03/27 02:12:21;;;;;;;13.13;8.05;;;;;;;11.89;62.60;101269.91;4979256;28;20050;-75
2021/03/27 02:15:53;;;;;;;12.23;8.23;;;;;;;11.85;62.52;101271.13;4977989;28;20045;-74
2021/03/27 02:19:36;;;;;;;9.95;7.22;;;;;;;11.88;63.26;101271.72;4982373;28;20052;-75
2021/03/27 02:23:06;;;;;;;14.30;8.20;;;;;;;11.75;63.53;101265.63;4981065;28;20058;-77
2021/03/27 02:26:52;;;;;;;15.88;8.88;;;;;;;11.51;64.15;101273.72;4980971;28;20070;-76
2021/03/27 02:30:14;;;;;;;10.50;8.52;;;;;;;11.41;64.27;101267.31;4982776;28;20057;-75
2021/03/27 02:34:01;;;;;;;10.93;8.38;;;;;;;11.40;64.43;101278.22;4982554;28;20045;-76
2021/03/27 02:37:19;;;;;;;14.10;9.48;;;;;;;11.35;64.74;101277.69;4968945;28;20534;-76
2021/03/27 02:40:30;;;;;;;14.55;9.32;;;;;;;11.26;64.24;101275.72;4979020;28;20065;-75
2021/03/27 02:43:50;;;;;;;15.00;9.73;;;;;;;11.22;63.86;101268.84;5023247;28;20049;-74
2021/03/27 02:47:06;;;;;;;13.13;9.05;;;;;;;11.26;63.60;101257.75;5022697;28;20053;-75
2021/03/27 02:50:48;;;;;;;11.35;8.52;;;;;;;11.27;64.37;101248.72;5023913;28;20041;-77
2021/03/27 02:54:05;;;;;;;12.23;8.57;;;;;;;11.31;63.97;101255.56;5026020;28;20052;-75
2021/03/27 02:57:27;;;;;;;11.45;9.02;;;;;;;11.30;64.68;101253.00;5025395;28;20500;-76
2021/03/27 03:00:52;;;;;;;11.20;8.52;;;;;;;11.19;64.90;101255.63;5025033;28;20049;-76
2021/03/27 03:04:03;;;;;;;12.98;8.82;;;;;;;11.13;64.61;101250.75;5027166;28;20408;-74
2021/03/27 03:07:35;;;;;;;14.95;9.65;;;;;;;11.15;64.96;101249.66;5024869;28;20053;-76
2021/03/27 03:11:00;;;;;;;15.00;8.98;;;;;;;11.19;64.93;101252.94;5027210;28;20044;-75
2021/03/27 03:14:43;;;;;;;12.35;9.02;;;;;;;11.14;64.74;101258.69;5026060;28;20056;-74
2021/03/27 03:17:57;;;;;;;11.90;8.95;;;;;;;11.10;64.99;101250.00;5024711;28;20092;-77
2021/03/27 03:21:05;;;;;;;;;;;;;;;10.98;65.16;101259.00;5025736;28;20037;-76
2021/03/27 03:24:18;;;;;;;11.60;9.07;;;;;;;11.01;64.91;101258.75;5023827;28;19936;-76
2021/03/27 03:27:33;;;;;;;14.57;9.27;;;;;;;11.05;64.99;101252.19;5025670;28;20049;-76
2021/03/27 03:31:10;;;;;;;12.18;8.95;;;;;;;11.03;65.12;101258.66;5026895;28;20080;-77
2021/03/27 03:34:23;;;;;;;12.07;9.63;;;;;;;11.06;65.39;101255.72;5025878;28;20068;-75
2021/03/27 03:37:48;;;;;;;12.60;8.85;;;;;;;11.09;65.38;101250.97;5014829;28;20061;-78
2021/03/27 03:41:12;;;;;;;13.93;9.57;;;;;;;10.94;65.86;101252.13;5025458;28;20394;-77
2021/03/27 03:44:56;;;;;;;13.43;9.43;;;;;;;10.77;65.68;101251.66;5026208;28;20060;-77
2021/03/27 03:48:37;;;;;;;13.85;9.50;;;;;;;10.74;64.49;101260.81;5012204;28;20044;-78
2021/03/27 03:51:45;;;;;;;12.80;9.20;;;;;;;10.66;64.69;101257.84;5024224;28;20397;-77
2021/03/27 03:55:22;;;;;;;13.05;9.35;;;;;;;10.66;64.42;101257.00;5023345;28;20064;-75
2021/03/27 03:58:35;;;;;;;15.18;9.75;;;;;;;10.62;64.59;101261.72;5023132;28;20409;-75
2021/03/27 04:01:59;;;;;;;13.07;9.65;;;;;;;10.57;64.78;101258.50;5024863;28;20507;-72
2021/03/27 04:05:24;;;;;;;16.98;9.93;;;;;;;10.48;65.25;101269.94;5022556;28;20064;-77
2021/03/27 04:08:40;;;;;;;12.82;9.85;;;;;;;10.47;65.52;101264.69;5016296;28;20402;-73
2021/03/27 04:12:02;;;;;;;14.63;10.07;;;;;;;10.43;65.37;101262.22;5022774;28;20060;-75
2021/03/27 04:15:31;;;;;;;15.70;10.88;;;;;;;10.36;65.32;101255.59;5021646;28;20417;-73
2021/03/27 04:18:41;;;;;;;15.80;10.68;;;;;;;10.39;65.50;101265.22;5023467;28;20050;-77
2021/03/27 04:22:14;;;;;;;18.05;11.07;;;;;;;10.41;65.35;101264.16;5023534;28;20486;-79
2021/03/27 04:25:36;;;;;;;19.52;11.10;;;;;;;10.40;65.56;101267.78;5026455;28;20037;-72
2021/03/27 04:28:40;;;;;;;13.27;11.15;;;;;;;10.42;65.30;101265.00;5019809;28;20041;-74
2021/03/27 04:32:02;;;;;;;14.73;10.50;;;;;;;10.47;65.46;101270.06;5022077;28;20046;-75
2021/03/27 04:35:41;;;;;;;18.15;10.85;;;;;;;10.53;65.02;101264.22;5022409;28;20485;-75
2021/03/27 04:38:53;;;;;;;14.00;9.75;;;;;;;10.68;64.73;101271.16;5022576;28;20489;-76
2021/03/27 04:42:22;;;;;;;13.85;10.35;;;;;;;10.75;64.92;101267.91;5024880;28;20045;-74
2021/03/27 04:45:37;;;;;;;16.65;10.85;;;;;;;10.74;64.48;101270.72;5022268;28;20046;-75
2021/03/27 04:48:50;;;;;;;13.48;10.80;;;;;;;10.61;64.84;101275.25;5018910;28;20034;-74
2021/03/27 04:52:06;;;;;;;16.02;11.30;;;;;;;10.49;65.47;101282.38;5018613;28;20042;-73
2021/03/27 04:55:26;;;;;;;19.20;12.00;;;;;;;10.42;65.34;101276.59;5018669;28;20049;-75
2021/03/27 04:59:02;;;;;;;16.05;11.30;;;;;;;10.44;65.77;101276.50;5023167;28;20041;-75
2021/03/27 05:02:25;;;;;;;16.15;10.70;;;;;;;10.47;65.32;101284.31;5021944;28;20401;-76
2021/03/27 05:05:50;;;;;;;13.13;10.30;;;;;;;10.40;65.51;101300.00;5017481;28;20042;-76
2021/03/27 05:09:00;;;;;;;15.65;10.52;;;;;;;10.36;65.98;101300.34;5023045;28;20034;-75
2021/03/27 05:12:12;;;;;;;14.85;10.57;;;;;;;10.37;65.69;101305.59;5015986;28;20393;-77
2021/03/27 05:15:25;;;;;;;17.70;10.65;;;;;;;10.42;65.22;101295.38;5023359;28;20054;-76
2021/03/27 05:18:44;;;;;;;16.88;10.07;;;;;;;10.47;65.08;101299.56;5022254;28;20034;-78
2021/03/27 05:22:06;;;;;;;14.48;10.23;;;;;;;10.55;65.09;101297.16;5021911;28;20046;-78
2021/03/27 05:25:23;;;;;;;14.63;10.25;;;;;;;10.69;64.77;101303.25;5022717;28;20034;-77
2021/03/27 05:28:27;;;;;;;16.35;9.68;;;;;;;10.73;64.58;101312.81;5021443;28;20419;-74
2021/03/27 05:31:47;;;;;;;12.60;9.00;;;;;;;10.85;63.98;101308.34;5013577;28;20049;-77
2021/03/27 05:34:52;;;;;;;17.52;10.35;;;;;;;10.99;63.76;101310.88;5022311;28;20052;-75
2021/03/27 05:38:12;;;;;;;12.00;9.52;;;;;;;11.11;63.91;101318.88;5023971;28;20046;-75
2021/03/27 05:41:34;;;;;;;15.52;9.43;;;;;;;11.23;63.79;101321.63;5023622;28;20053;-75
2021/03/27 05:44:53;;;;;;;16.23;9.75;;;;;;;11.33;63.03;101333.41;5024327;28;20064;-75
2021/03/27 05:48:09;;;;;;;11.52;8.20;;;;;;;11.38;62.91;101329.38;5023772;28;20057;-76
2021/03/27 05:51:41;;;;;;;15.68;8.32;;;;;;;11.32;63.33;101324.47;5017743;28;20053;-78
2021/03/27 05:55:16;;;;;;;45.97;33.88;;;;;;;11.28;63.22;101336.44;5020029;28;20057;-76
2021/03/27 05:58:26;;;;;;;29.00;22.35;;;;;;;11.23;63.38;101327.00;5024130;28;20418;-74
2021/03/27 06:01:49;;;;;;;21.58;12.00;;;;;;;11.18;64.06;101326.50;5021674;28;20041;-76
2021/03/27 06:05:16;;;;;;;12.20;7.95;;;;;;;11.16;63.60;101333.81;5022371;28;20049;-74
2021/03/27 06:08:26;;;;;;;9.85;7.55;;;;;;;11.16;64.25;101326.59;5028843;28;20041;-76
2021/03/27 06:12:04;;;;;;;13.55;7.38;;;;;;;11.11;64.50;101339.50;5017407;28;20065;-75
2021/03/27 06:15:10;;;;;;;10.75;7.07;;;;;;;11.10;64.88;101338.69;5023250;28;20053;-76
2021/03/27 06:18:27;;;;;;;13.40;7.28;;;;;;;11.06;65.29;101342.53;4995336;28;20058;-75
2021/03/27 06:21:40;;;;;;;10.27;7.22;;;;;;;11.12;65.08;101346.63;5005243;28;20045;-75
2021/03/27 06:25:02;;;;;;;12.73;7.15;;;;;;;11.15;65.34;101345.53;4993108;28;20489;-74
2021/03/27 06:28:35;;;;;;;12.00;7.45;;;;;;;11.14;65.43;101355.41;4994853;28;20053;-74
2021/03/27 06:32:24;;;;;;;11.35;7.43;;;;;;;11.24;65.16;101355.59;5004804;28;20512;-74
2021/03/27 06:38:16;;;;;;;12.63;7.72;;;;;;;11.34;65.24;101341.34;5004617;28;20038;-74
2021/03/27 06:41:43;;;;;;;14.95;7.80;;;;;;;11.32;65.71;101345.13;5002777;28;20603;-78
2021/03/27 06:45:20;;;;;;;12.00;7.32;;;;;;;11.44;65.26;101342.38;4981171;28;20104;-73
2021/03/27 06:48:57;;;;;;;14.75;7.75;;;;;;;11.44;65.28;101345.06;4992365;28;20131;-73
2021/03/27 06:52:25;;;;;;;16.52;8.15;;;;;;;11.55;65.23;101355.00;4992100;28;20061;-75
2021/03/27 06:55:40;;;;;;;12.70;7.40;;;;;;;11.51;65.64;101354.38;4992247;28;20055;-72
2021/03/27 06:58:56;;;;;;;14.82;7.72;;;;;;;11.37;65.62;101351.00;5004419;28;20057;-72
2021/03/27 07:02:26;;;;;;;11.63;7.93;;;;;;;11.31;65.98;101346.09;5000122;28;20193;-73
2021/03/27 07:06:08;;;;;;;17.42;8.15;;;;;;;11.31;66.41;101346.09;5011829;28;20567;-72
2021/03/27 07:09:49;;;;;;;22.27;8.15;;;;;;;11.33;65.89;101353.06;5004724;28;20057;-73
2021/03/27 07:13:11;;;;;;;12.57;7.55;;;;;;;11.36;65.88;101360.03;5012431;28;20088;-74
2021/03/27 07:17:04;;;;;;;14.68;7.82;;;;;;;11.40;65.57;101348.09;5011937;28;20049;-73
2021/03/27 07:20:37;;;;;;;14.23;7.20;;;;;;;11.41;64.57;101353.34;4977338;28;20717;-75
2021/03/27 07:24:03;;;;;;;13.38;7.70;;;;;;;11.54;64.05;101351.47;4995273;28;20053;-77
2021/03/27 07:27:43;;;;;;;12.70;8.02;;;;;;;11.71;63.81;101351.06;5009210;28;20510;-76
2021/03/27 07:31:17;;;;;;;14.50;8.63;;;;;;;11.87;63.37;101361.50;4999312;28;20057;-77
2021/03/27 07:34:58;;;;;;;10.73;8.55;;;;;;;12.00;63.33;101356.88;5003875;28;20061;-77
2021/03/27 07:38:33;;;;;;;13.80;8.82;;;;;;;12.17;63.02;101364.47;5003405;28;20060;-78
2021/03/27 07:42:03;;;;;;;15.48;8.00;;;;;;;12.31;62.37;101363.41;4979457;28;20058;-73
2021/03/27 07:45:46;;;;;;;14.52;7.75;;;;;;;12.61;61.67;101368.19;4982916;28;20057;-75
2021/03/27 07:49:15;;;;;;;14.13;8.00;;;;;;;12.89;60.36;101365.84;4992599;28;20057;-77
2021/03/27 07:52:42;;;;;;;18.58;9.40;;;;;;;13.04;60.79;101378.06;5000809;28;20453;-76
2021/03/27 07:56:04;;;;;;;19.00;9.70;;;;;;;13.12;60.35;101377.47;4986265;28;20057;-74
2021/03/27 07:59:31;;;;;;;21.63;9.13;;;;;;;13.10;60.73;101381.28;4996148;28;20057;-80
2021/03/27 08:03:25;;;;;;;16.60;10.02;;;;;;;13.04;63.45;101369.97;5004091;28;20069;-76
2021/03/27 08:06:48;;;;;;;20.98;10.02;;;;;;;13.13;63.64;101376.50;5013507;28;20050;-73
2021/03/27 08:10:26;;;;;;;23.33;12.18;;;;;;;13.25;64.27;101380.88;5015774;28;20046;-73
2021/03/27 08:13:55;;;;;;;22.17;12.55;;;;;;;14.05;61.11;101387.50;4996308;28;20046;-76
2021/03/27 08:17:35;;;;;;;19.83;12.48;;;;;;;13.84;59.01;101393.88;4995654;28;20050;-75
2021/03/27 08:20:57;;;;;;;20.48;12.77;;;;;;;13.72;60.29;101394.94;4995874;28;20389;-75
2021/03/27 08:24:33;;;;;;;18.83;12.70;;;;;;;13.66;60.45;101396.28;4996245;28;20042;-75
2021/03/27 08:28:08;;;;;;;15.70;12.57;;;;;;;13.77;60.33;101398.09;4995921;28;20047;-76
2021/03/27 08:31:40;;;;;;;22.08;13.20;;;;;;;13.72;61.79;101401.19;4995980;28;20398;-74
2021/03/27 08:35:27;;;;;;;20.73;14.23;;;;;;;13.57;62.79;101399.78;5001064;28;20401;-75
2021/03/27 08:39:05;;;;;;;24.23;14.48;;;;;;;13.25;65.41;101412.38;5013808;28;20045;-80
2021/03/27 08:42:23;;;;;;;18.75;14.63;;;;;;;13.24;65.95;101411.50;5012980;28;20038;-75
2021/03/27 08:45:46;;;;;;;27.23;16.20;;;;;;;12.99;65.08;101412.63;4999275;28;20042;-79
2021/03/27 08:48:59;;;;;;;33.63;16.67;;;;;;;12.88;63.97;101428.81;5026001;28;20033;-79
2021/03/27 08:52:51;;;;;;;26.25;17.13;;;;;;;12.70;64.33;101437.50;5023630;28;20061;-75
2021/03/27 08:56:33;;;;;;;26.52;17.88;;;;;;;12.70;65.40;101438.34;4970655;28;20050;-75
2021/03/27 09:00:22;;;;;;;28.50;18.52;;;;;;;12.72;65.41;101420.22;4972045;28;20390;-77
2021/03/27 09:03:44;;;;;;;37.15;20.58;;;;;;;12.93;64.57;101429.31;4932620;29;20051;-76
2021/03/27 09:07:05;;;;;;;;;;;;;;;13.08;64.52;101432.63;4932465;29;20494;-77
2021/03/27 09:10:21;;;;;;;29.63;20.98;;;;;;;13.15;64.84;101428.44;4916624;29;19919;-75
2021/03/27 09:13:45;;;;;;;28.10;20.48;;;;;;;13.21;64.83;101419.84;4916241;29;20048;-76
2021/03/27 09:17:17;;;;;;;30.42;21.38;;;;;;;13.19;63.67;101434.44;4933788;29;20070;-79
2021/03/27 09:20:41;;;;;;;30.15;21.83;;;;;;;13.22;64.58;101432.34;4935393;29;20051;-77
2021/03/27 09:24:08;;;;;;;27.88;20.88;;;;;;;13.12;64.40;101434.06;4942655;29;20043;-74
2021/03/27 09:28:03;;;;;;;24.98;21.73;;;;;;;13.29;64.57;101430.88;4954107;29;20043;-78
2021/03/27 09:31:13;;;;;;;31.33;25.48;;;;;;;13.44;64.37;101442.22;4907405;29;20037;-84
2021/03/27 09:34:43;;;;;;;38.70;28.65;;;;;;;13.44;63.91;101435.00;4876861;29;20490;-83
2021/03/27 09:38:12;;;;;;;38.95;31.00;;;;;;;13.40;64.75;101441.63;4910974;29;20048;-81
2021/03/27 09:41:53;;;;;;;37.72;30.48;;;;;;;13.42;65.14;101441.50;4914382;29;20048;-75
2021/03/27 09:45:47;;;;;;;37.30;31.40;;;;;;;13.38;64.70;101437.34;4913535;29;20483;-75
2021/03/27 09:49:15;;;;;;;34.45;30.65;;;;;;;13.62;64.96;101443.41;4915356;29;20048;-76
2021/03/27 09:52:39;;;;;;;46.88;32.17;;;;;;;13.93;64.68;101438.97;4915160;29;20535;-75
2021/03/27 09:56:10;;;;;;;43.13;31.85;;;;;;;14.15;64.14;101430.78;4926283;29;20059;-74
2021/03/27 09:59:20;;;;;;;44.60;33.65;;;;;;;14.43;63.74;101430.16;4916160;29;20056;-75
2021/03/27 10:02:37;;;;;;;40.75;34.83;;;;;;;14.48;63.98;101421.63;4916125;29;20044;-76
2021/03/27 10:05:55;;;;;;;46.80;35.35;;;;;;;14.70;63.26;101424.19;4958797;28;20046;-82
2021/03/27 10:09:24;;;;;;;48.22;33.55;;;;;;;15.00;62.32;101429.56;4994901;28;20470;-74
2021/03/27 10:12:54;;;;;;;44.53;33.92;;;;;;;15.14;62.61;101422.91;4993963;28;20046;-74
2021/03/27 10:16:01;;;;;;;37.40;32.67;;;;;;;15.32;61.83;101423.97;4994605;28;20038;-74
2021/03/27 10:19:17;;;;;;;40.15;33.15;;;;;;;15.26;61.73;101429.91;4993699;28;20046;-74
2021/03/27 10:22:33;;;;;;;42.22;31.77;;;;;;;15.28;62.64;101422.56;4994671;28;20414;-75
2021/03/27 10:25:43;;;;;;;41.83;33.13;;;;;;;15.14;64.30;101420.22;4994638;28;20046;-75
2021/03/27 10:28:56;;;;;;;39.53;31.02;;;;;;;15.22;63.04;101407.72;4994499;28;20470;-75
2021/03/27 10:32:14;;;;;;;40.77;31.93;;;;;;;15.28;63.13;101422.56;4994635;28;20046;-74
2021/03/27 10:35:45;;;;;;;41.30;32.47;;;;;;;15.47;63.37;101425.31;4994529;28;20046;-76
2021/03/27 10:39:21;;;;;;;41.00;29.27;;;;;;;15.97;61.21;101432.31;4994591;28;20051;-76
2021/03/27 10:42:42;;;;;;;36.60;30.48;;;;;;;16.31;60.84;101437.28;4994584;28;20043;-74
2021/03/27 10:46:04;;;;;;;37.22;30.38;;;;;;;16.28;59.28;101436.59;4994434;28;20042;-74
2021/03/27 10:49:21;;;;;;;38.17;30.40;;;;;;;16.41;59.49;101436.28;4994776;28;20474;-72
2021/03/27 10:52:50;;;;;;;35.50;29.02;;;;;;;16.53;59.01;101442.41;4994619;28;20039;-73
2021/03/27 10:56:00;;;;;;;33.53;28.58;;;;;;;16.64;57.57;101436.84;5005138;28;20038;-74
2021/03/27 10:59:51;;;;;;;35.35;26.88;;;;;;;16.47;57.82;101434.81;5009249;28;20038;-75
2021/03/27 11:02:56;;;;;;;35.70;27.52;;;;;;;16.67;57.82;101437.38;5014391;28;20043;-74
2021/03/27 11:06:38;;;;;;;31.50;26.95;;;;;;;16.34;57.85;101432.44;4998349;28;20046;-79
2021/03/27 11:09:52;;;;;;;36.78;28.90;;;;;;;16.35;58.41;101434.13;4997851;28;20046;-75
2021/03/27 11:13:26;;;;;;;30.83;27.35;;;;;;;16.43;58.74;101430.69;4998028;28;20043;-75
2021/03/27 11:16:53;;;;;;;35.17;26.90;;;;;;;16.38;58.14;101428.44;4997825;28;20402;-75
2021/03/27 11:20:25;;;;;;;33.63;27.13;;;;;;;16.41;58.15;101432.72;4997763;28;20050;-78
2021/03/27 11:24:06;;;;;;;33.35;24.70;;;;;;;16.52;56.20;101432.56;4997637;28;20038;-74
2021/03/27 11:27:16;;;;;;;32.20;25.10;;;;;;;16.72;57.48;101434.22;4997797;28;20050;-77
2021/03/27 11:30:32;;;;;;;25.45;20.95;;;;;;;16.83;54.38;101434.06;4997847;28;20042;-78
2021/03/27 11:33:54;;;;;;;29.20;22.75;;;;;;;16.82;54.98;101432.31;4996935;28;20433;-79
2021/03/27 11:37:07;;;;;;;26.83;21.83;;;;;;;16.78;54.62;101430.94;4997863;28;20059;-75
2021/03/27 11:40:32;;;;;;;27.92;21.05;;;;;;;16.88;53.65;101423.63;4997501;28;20046;-78
2021/03/27 11:43:40;;;;;;;30.05;23.08;;;;;;;17.13;54.67;101422.06;4997520;28;20050;-78
2021/03/27 11:46:53;;;;;;;22.02;17.05;;;;;;;17.04;52.13;101431.94;4996969;28;20054;-81
2021/03/27 11:50:16;;;;;;;20.80;15.55;;;;;;;16.98;50.68;101423.56;4997194;28;20362;-74
2021/03/27 11:53:39;;;;;;;24.50;19.27;;;;;;;17.32;51.26;101430.94;4997240;28;20047;-74
2021/03/27 11:56:55;;;;;;;28.50;23.23;;;;;;;17.12;51.05;101431.19;4997150;28;20409;-76
2021/03/27 12:00:48;;;;;;;13.98;7.40;;;;;;;16.89;46.83;101433.44;4996649;28;20417;-74
2021/03/27 12:04:09;;;;;;;16.15;11.90;;;;;;;16.97;49.67;101422.72;4996272;28;20049;-74
2021/03/27 12:07:32;;;;;;;16.60;13.30;;;;;;;16.96;51.16;101420.97;4997032;28;20050;-74
2021/03/27 12:10:57;;;;;;;19.23;12.80;;;;;;;17.14;50.81;101429.19;4996088;28;20050;-74
2021/03/27 12:14:10;;;;;;;14.35;10.73;;;;;;;16.92;51.25;101435.84;5014693;28;20045;-75
2021/03/27 12:17:46;;;;;;;14.02;10.73;;;;;;;16.93;50.83;101426.72;5014532;28;20058;-73
2021/03/27 12:21:26;;;;;;;16.63;11.85;;;;;;;16.80;51.64;101426.22;5005614;28;20057;-79
2021/03/27 12:25:09;;;;;;;16.85;12.30;;;;;;;16.91;51.79;101426.88;4984736;28;20050;-73
2021/03/27 12:28:45;;;;;;;18.58;10.75;;;;;;;17.34;50.14;101420.78;4907401;29;20047;-74
2021/03/27 12:32:04;;;;;;;20.10;11.77;;;;;;;17.35;50.27;101416.22;4918151;28;20051;-76
2021/03/27 12:35:32;;;;;;;20.83;12.95;;;;;;;17.69;50.15;101406.44;4974979;28;20043;-82
2021/03/27 12:39:06;;;;;;;16.90;12.23;;;;;;;17.58;49.28;101417.50;4974196;28;20043;-79
2021/03/27 12:42:19;;;;;;;15.48;12.88;;;;;;;17.30;50.44;101419.41;4961348;28;20043;-78
2021/03/27 12:45:34;;;;;;;15.45;13.43;;;;;;;17.50;50.46;101409.28;4959072;28;20063;-74
2021/03/27 12:48:53;;;;;;;19.13;13.68;;;;;;;17.57;50.14;101414.97;4961257;28;20410;-76
2021/03/27 12:52:17;;;;;;;18.67;14.15;;;;;;;17.52;50.23;101408.16;4963274;28;20554;-78
2021/03/27 12:55:39;;;;;;;16.48;12.50;;;;;;;17.55;49.81;101415.97;4965436;28;20557;-78
2021/03/27 12:59:06;;;;;;;17.63;11.82;;;;;;;17.63;49.06;101408.94;4981285;28;20042;-79
2021/03/27 13:02:41;;;;;;;17.15;12.60;;;;;;;17.78;49.38;101413.66;4995990;28;20414;-76
2021/03/27 13:05:50;;;;;;;16.23;12.60;;;;;;;17.76;48.84;101414.81;5010056;28;20393;-79
2021/03/27 13:09:32;;;;;;;17.67;11.38;;;;;;;17.63;48.72;101404.34;4995908;28;20049;-76
2021/03/27 13:13:17;;;;;;;13.75;11.65;;;;;;;17.54;49.04;101394.41;4994933;28;20038;-75
2021/03/27 13:16:49;;;;;;;13.75;8.98;;;;;;;17.73;48.54;101396.97;4994899;28;20046;-77
2021/03/27 13:20:20;;;;;;;19.58;10.77;;;;;;;17.97;48.17;101399.06;4990602;28;20041;-76
2021/03/27 13:23:36;;;;;;;14.50;9.52;;;;;;;18.17;47.70;101393.28;5015362;28;20374;-74
2021/03/27 13:26:43;;;;;;;15.27;8.88;;;;;;;18.24;47.12;101392.66;5015183;28;20061;-74
2021/03/27 13:29:50;;;;;;;11.82;8.82;;;;;;;18.34;47.31;101390.69;5015179;28;20048;-77
2021/03/27 13:33:10;;;;;;;14.32;9.10;;;;;;;18.38;47.10;101392.91;5014517;28;20053;-80
2021/03/27 13:36:17;;;;;;;11.77;8.95;;;;;;;18.44;46.70;101396.88;5014725;28;20053;-75
2021/03/27 13:39:37;;;;;;;16.02;9.82;;;;;;;18.42;47.03;101393.47;5009583;28;20053;-78
2021/03/27 13:43:02;;;;;;;11.02;8.80;;;;;;;18.42;47.17;101391.56;5013836;28;20041;-83
2021/03/27 13:46:22;;;;;;;11.02;7.93;;;;;;;18.42;47.36;101393.47;5014226;28;20165;-80
2021/03/27 13:49:41;;;;;;;10.13;7.60;;;;;;;18.35;47.81;101392.38;5015207;28;20057;-79
2021/03/27 13:53:01;;;;;;;12.85;7.82;;;;;;;18.31;48.12;101391.84;5013444;28;20053;-84
2021/03/27 13:56:06;;;;;;;11.35;8.10;;;;;;;18.32;48.22;101392.72;4993784;28;20053;-77
2021/03/27 13:59:35;;;;;;;9.93;8.02;;;;;;;18.22;48.23;101384.63;5003116;28;20049;-86
2021/03/27 14:02:51;;;;;;;11.60;8.65;;;;;;;18.09;48.55;101385.06;4995320;28;20049;-87
2021/03/27 14:06:21;;;;;;;13.55;8.13;;;;;;;18.09;48.68;101390.50;4995660;28;20069;-78
2021/03/27 14:09:34;;;;;;;15.95;8.38;;;;;;;18.14;48.53;101390.91;5002634;28;20041;-76
2021/03/27 14:13:14;;;;;;;11.82;8.05;;;;;;;18.20;48.43;101381.22;5006702;28;20045;-75
2021/03/27 14:17:02;;;;;;;15.02;9.23;;;;;;;18.25;48.49;101384.31;5020793;28;20060;-79
2021/03/27 14:20:19;;;;;;;14.43;9.27;;;;;;;18.38;47.98;101379.31;5010384;28;20061;-76
2021/03/27 14:23:26;;;;;;;13.13;9.23;;;;;;;18.51;47.74;101381.66;4994697;28;20053;-74
2021/03/27 14:26:57;;;;;;;12.85;8.85;;;;;;;18.47;47.80;101375.66;4994584;28;20073;-75
2021/03/27 14:30:28;;;;;;;14.68;9.18;;;;;;;18.24;48.15;101370.91;4993758;28;20049;-75
2021/03/27 14:34:01;;;;;;;12.90;9.43;;;;;;;18.04;48.44;101371.09;4994586;28;20161;-78
2021/03/27 14:37:43;;;;;;;11.18;9.32;;;;;;;17.87;48.58;101377.44;4994368;28;20053;-77
2021/03/27 14:41:29;;;;;;;11.95;8.13;;;;;;;17.94;48.76;101374.91;4992176;28;20207;-76
2021/03/27 14:44:39;;;;;;;12.07;8.55;;;;;;;17.96;48.27;101376.47;4993524;28;20135;-74
2021/03/27 14:48:19;;;;;;;12.13;8.35;;;;;;;18.11;48.40;101377.63;4997792;28;20071;-75
2021/03/27 14:51:35;;;;;;;12.10;7.93;;;;;;;18.26;48.56;101369.75;4996267;28;20049;-74
2021/03/27 14:54:49;;;;;;;12.25;7.80;;;;;;;18.35;48.24;101371.47;5002299;28;20049;-74
2021/03/27 14:58:02;;;;;;;17.95;8.48;;;;;;;18.40;47.80;101366.41;4996237;28;20446;-74
2021/03/27 15:01:11;;;;;;;13.43;8.70;;;;;;;18.38;48.50;101364.88;5013643;28;20173;-74
2021/03/27 15:04:43;;;;;;;12.73;8.45;;;;;;;18.39;48.39;101363.88;4996126;28;20540;-73
2021/03/27 15:08:02;;;;;;;13.85;8.85;;;;;;;18.37;48.11;101360.47;5018643;28;20061;-73
2021/03/27 15:11:28;;;;;;;17.40;8.38;;;;;;;18.25;48.10;101351.72;5015633;28;20437;-74
2021/03/27 15:14:51;;;;;;;11.98;7.93;;;;;;;18.22;48.79;101356.63;5015501;28;20053;-74
2021/03/27 15:18:04;;;;;;;12.73;7.90;;;;;;;18.28;48.49;101351.41;5015086;28;20536;-74
2021/03/27 15:21:17;;;;;;;10.77;6.82;;;;;;;18.29;48.06;101341.38;5015174;28;20041;-75
2021/03/27 15:24:46;;;;;;;12.65;6.65;;;;;;;18.26;48.42;101336.25;5015509;28;20049;-74
2021/03/27 15:27:58;;;;;;;13.82;6.55;;;;;;;18.04;48.71;101348.50;5001823;28;20054;-74
2021/03/27 15:31:25;;;;;;;11.75;5.65;;;;;;;17.96;48.79;101343.00;4997643;28;20050;-74
2021/03/27 15:34:43;;;;;;;10.35;5.57;;;;;;;17.86;48.74;101344.97;4996556;28;20065;-74